Date,TemperatureHighF,TemperatureAvgF,TemperatureLowF,DewpointHighF,DewpointAvgF,DewpointLowF,HumidityHigh,HumidityAvg,HumidityLow,PressureMaxIn,PressureMinIn,WindSpeedMaxMPH,WindSpeedAvgMPH,GustSpeedMaxMPH,PrecipitationSumIn
2015-1-1,64,56,50,58,52,47,96,87,78,30.33,30.19,3,0,8,0.01
2015-1-2,72,62,56,67,60,54,98,93,83,30.30,30.20,2,0,5,0.00
2015-1-3,81,68,62,72,66,61,99,93,70,30.25,30.14,4,0,8,0.00
2015-1-4,80,70,62,73,68,62,99,93,74,30.24,30.14,5,0,8,0.39
2015-1-5,66,54,42,65,48,41,99,84,56,30.46,30.23,5,0,10,0.00
2015-1-6,70,49,36,59,44,36,99,84,43,30.39,30.23,1,0,5,0.00
2015-1-7,64,47,34,45,37,25,99,72,31,30.36,30.14,1,0,9,0.00
2015-1-8,45,37,28,34,26,15,86,65,45,30.52,30.36,4,0,13,0.00
2015-1-9,56,44,37,41,38,34,95,81,50,30.39,30.26,3,0,8,0.00
2015-1-10,58,45,33,46,38,30,98,80,46,30.45,30.34,3,0,9,0.00
2015-1-11,67,56,45,63,54,44,99,93,81,30.42,30.28,3,0,5,0.00
2015-1-12,69,62,58,69,62,58,100,100,99,30.29,30.09,0,0,5,0.67
2015-1-13,67,62,58,65,62,58,100,98,92,30.20,30.10,1,0,4,0.01
2015-1-14,60,54,50,60,53,49,98,95,90,30.21,30.13,3,0,4,0.00
2015-1-15,105,71,47,100,69,46,100,97,93,30.19,30.09,2,0,5,0.28
2015-1-16,103,28,88,100,28,88,100,28,100,30.20,30.09,3,0,8,0.04
2015-1-17,-200,0,200,-100,0,200,0,0,100,30.26,30.11,2,0,5,0.00
2015-1-18,-200,0,200,-100,0,200,0,0,100,30.16,30.03,5,0,11,0.00
2015-1-19,-200,0,200,-100,0,200,0,0,100,30.25,30.10,3,0,4,0.00
2015-1-20,-200,0,200,-100,0,200,0,0,100,30.14,29.99,2,0,4,0.00
2015-1-21,-200,0,200,-100,0,200,0,0,100,30.13,30.02,3,0,5,0.00
2015-1-22,-200,0,200,-100,0,200,0,0,100,30.25,30.12,3,0,6,0.00
2015-1-23,-200,0,200,-100,0,200,0,0,100,30.12,29.80,5,0,12,1.81
2015-1-24,-200,0,200,-100,0,200,0,0,100,30.02,29.73,5,1,11,0.09
2015-1-25,-200,0,200,-100,0,200,0,0,100,30.08,29.89,3,0,5,0.00
2015-1-26,-200,0,200,-100,0,200,0,0,100,29.96,29.79,5,1,10,0.16
2015-1-27,-200,0,200,-100,0,200,0,0,100,30.08,29.86,5,0,8,0.00
2015-1-28,-200,0,200,-100,0,200,0,0,100,30.31,30.07,3,0,6,0.00
2015-1-29,-200,0,200,-100,0,200,0,0,100,30.36,30.20,3,0,8,0.00
2015-1-30,-200,0,200,-100,0,200,0,0,100,30.28,30.14,5,0,10,0.00
2015-1-31,-200,0,200,-100,0,200,0,0,100,30.34,30.25,4,0,8,0.00
2015-2-1,-200,0,200,-100,0,200,0,0,100,30.27,29.99,7,1,11,0.00
2015-2-2,-200,0,200,-100,0,200,0,0,100,30.17,29.88,7,0,10,0.11
2015-2-3,-200,0,200,-100,0,200,0,0,100,30.34,30.17,4,0,7,0.00
2015-2-4,-200,0,200,-100,0,200,0,0,100,30.29,29.98,2,0,5,0.38
2015-2-5,-200,0,200,-100,0,200,0,0,100,30.18,29.82,4,1,11,0.25
2015-2-6,-200,0,200,-100,0,200,0,0,100,30.36,30.18,6,0,8,0.00
2015-2-7,-200,0,200,-100,0,200,0,0,100,30.32,30.20,4,0,7,0.00
2015-2-8,-200,0,200,-100,0,200,0,0,100,30.22,30.00,3,0,7,0.00
2015-2-9,-200,0,200,-100,0,200,0,0,100,30.01,29.75,1,0,4,0.03
2015-2-10,-200,0,200,-100,0,200,0,0,100,29.95,29.70,6,1,9,0.00
2015-2-11,-200,0,200,-100,0,200,0,0,100,30.07,29.94,4,0,7,0.00
2015-2-12,-200,0,200,-100,0,200,0,0,100,30.10,29.97,3,0,9,0.00
2015-2-13,-200,0,200,-100,0,200,0,0,100,30.26,30.10,6,1,11,0.00
2015-2-14,-200,0,200,-100,0,200,0,0,100,30.25,30.05,5,0,8,0.00
2015-2-15,-200,0,200,-100,0,200,0,0,100,30.24,30.10,4,0,8,0.00
2015-2-16,-200,0,200,-100,0,200,0,0,100,30.22,29.91,6,1,12,0.00
2015-2-17,-200,0,200,-100,0,200,0,0,100,29.96,29.78,4,0,6,0.94
2015-2-18,59,13,38,34,10,25,85,19,35,30.19,29.95,5,1,8,0.11
2015-2-19,50,38,26,24,14,7,77,42,19,30.36,30.19,5,1,10,0.00
2015-2-20,55,36,21,28,16,5,89,54,14,30.48,30.34,2,0,7,0.00
2015-2-21,73,51,28,48,39,25,93,69,38,30.41,30.18,6,0,13,0.00
2015-2-22,82,64,50,62,55,46,97,77,46,30.22,30.12,5,0,7,0.00
2015-2-23,79,66,54,65,62,53,98,87,61,30.19,30.07,3,0,6,0.03
2015-2-24,65,59,54,63,57,52,96,92,88,30.10,29.94,5,0,7,0.01
2015-2-25,69,57,51,65,54,49,94,90,80,29.99,29.59,2,0,8,0.00
2015-2-26,71,56,49,68,53,43,96,88,72,30.11,29.56,10,1,15,0.30
2015-2-27,57,50,44,44,41,38,91,73,52,30.34,30.11,4,1,9,0.00
2015-2-28,58,52,48,57,50,42,97,92,75,30.43,30.30,4,0,9,0.36
2015-3-1,74,60,50,67,58,50,98,92,76,30.42,30.28,1,0,7,0.37
2015-3-2,84,67,58,68,62,57,98,86,54,30.34,30.18,3,0,5,0.00
2015-3-3,85,70,61,67,63,60,98,80,45,30.24,30.09,5,0,9,0.00
2015-3-4,86,71,58,69,64,58,98,79,44,30.16,30.03,7,1,9,0.00
2015-3-5,85,70,58,68,64,57,98,82,50,30.14,30.02,4,0,9,0.13
2015-3-6,64,52,46,64,51,44,97,94,87,30.37,30.14,3,1,7,0.00
2015-3-7,69,53,42,50,45,41,93,75,48,30.41,30.29,3,0,8,0.00
2015-3-8,77,57,37,54,46,36,97,71,33,30.34,30.17,4,0,6,0.00
2015-3-9,80,63,45,59,52,44,96,72,41,30.23,30.11,3,0,5,0.00
2015-3-10,87,70,57,68,59,54,98,73,33,30.18,30.07,7,1,12,0.00
2015-3-11,86,70,59,70,65,58,95,83,53,30.20,30.10,3,0,6,0.01
2015-3-12,87,72,62,72,66,61,98,84,47,30.23,30.12,4,0,7,0.00
2015-3-13,86,74,66,69,64,57,97,74,39,30.23,30.07,6,1,11,0.00
2015-3-14,88,74,64,69,66,61,95,76,45,30.14,30.03,4,1,9,0.00
2015-3-15,87,72,60,68,61,54,98,73,34,30.18,30.08,3,0,6,0.00
2015-3-16,87,68,52,63,55,47,97,68,27,30.20,30.05,3,0,5,0.00
2015-3-17,90,70,52,62,57,51,96,70,35,30.09,29.89,3,0,8,0.00
2015-3-18,84,69,56,64,61,55,97,78,48,30.06,29.92,3,0,9,0.00
2015-3-19,85,70,58,69,63,56,96,82,52,30.07,29.96,2,0,8,0.07
2015-3-20,87,71,61,72,65,60,98,83,46,30.10,30.00,2,0,5,0.01
2015-3-21,85,72,62,70,66,60,97,84,54,30.11,29.98,1,0,5,0.00
2015-3-22,86,73,65,70,67,64,97,82,54,30.03,29.88,2,0,5,0.00
2015-3-23,79,67,59,73,66,59,98,95,73,30.03,29.84,5,0,7,0.21
2015-3-24,71,63,59,64,60,58,97,91,75,30.12,30.02,2,0,5,0.00
2015-3-25,80,67,61,64,60,55,98,82,46,30.16,30.05,3,0,4,0.02
2015-3-26,78,65,56,73,63,55,98,94,77,30.09,29.86,3,0,6,0.32
2015-3-27,73,65,50,69,63,48,99,92,80,29.98,29.73,3,0,8,0.16
2015-3-28,68,52,39,48,39,34,96,67,30,30.24,29.98,5,0,6,0.00
2015-3-29,68,51,38,43,36,27,95,64,24,30.39,30.24,3,0,6,0.00
2015-3-30,80,58,37,58,48,36,96,73,38,30.33,30.12,3,0,8,0.00
2015-3-31,84,68,55,67,61,54,97,81,49,30.16,30.00,4,0,6,0.00
2015-4-1,86,72,63,68,63,56,98,76,37,30.14,30.01,2,0,7,0.00
2015-4-2,85,70,57,66,61,56,97,76,39,30.21,30.12,3,0,6,0.00
2015-4-3,89,72,58,68,62,57,98,75,42,30.18,30.05,3,0,8,0.00
2015-4-4,86,68,55,70,64,54,97,87,53,30.12,30.02,2,0,6,0.47
2015-4-5,76,68,59,67,62,58,98,84,61,30.18,30.09,3,0,8,0.00
2015-4-6,84,70,61,69,65,60,97,84,59,30.21,30.12,4,0,6,0.00
2015-4-7,88,73,60,72,66,60,98,81,46,30.19,30.10,4,0,5,0.16
2015-4-8,89,74,63,72,66,62,99,80,46,30.18,30.05,2,0,4,0.00
2015-4-9,89,74,60,70,66,59,97,78,46,30.17,30.07,3,0,8,0.00
2015-4-10,91,75,63,72,68,62,98,79,47,30.13,30.02,3,0,7,0.00
2015-4-11,83,72,61,71,67,60,97,84,66,30.12,30.04,4,0,6,0.00
2015-4-12,85,72,64,72,67,63,97,86,63,30.14,30.04,3,0,7,0.01
2015-4-13,85,72,66,74,70,66,98,93,66,30.16,30.08,2,0,4,0.14
2015-4-14,88,74,66,75,69,65,99,86,56,30.15,30.00,3,0,9,0.09
2015-4-15,83,72,66,75,70,65,99,92,72,30.11,30.01,2,0,6,0.25
2015-4-16,75,69,65,71,67,65,99,94,84,30.14,30.06,3,0,6,0.02
2015-4-17,74,69,65,70,67,64,98,94,85,30.12,29.97,2,0,3,0.00
2015-4-18,89,76,67,74,70,66,99,84,59,30.00,29.88,3,0,6,0.00
2015-4-19,89,74,66,73,69,65,98,86,56,29.95,29.83,3,0,9,0.03
2015-4-20,79,68,63,71,66,63,98,94,72,29.92,29.79,4,0,7,0.21
2015-4-21,84,70,61,68,63,60,99,82,45,30.00,29.89,2,0,4,0.00
2015-4-22,87,70,54,65,58,53,97,72,33,30.02,29.91,2,0,4,0.00
2015-4-23,90,73,57,67,60,51,97,70,30,29.98,29.88,2,0,5,0.00
2015-4-24,87,73,62,67,60,52,97,68,34,30.02,29.91,3,0,5,0.00
2015-4-25,88,74,60,74,68,58,96,82,60,30.00,29.72,3,0,7,0.07
2015-4-26,91,78,69,75,72,68,99,84,55,29.77,29.67,2,0,9,0.01
2015-4-27,82,74,68,73,71,67,97,91,75,29.86,29.69,2,0,5,0.07
2015-4-28,75,69,65,70,66,63,98,92,79,29.87,29.76,2,0,7,0.00
2015-4-29,87,71,61,71,65,60,98,83,49,29.78,29.60,2,0,7,0.04
2015-4-30,81,67,58,63,58,53,97,76,39,29.88,29.70,3,0,7,0.00
2015-5-1,84,66,51,58,49,37,97,62,26,30.02,29.86,2,0,9,0.00
2015-5-2,83,64,44,57,49,42,95,65,30,30.10,30.01,3,0,7,0.00
2015-5-3,85,66,47,60,50,46,96,63,29,30.18,30.10,2,0,6,0.00